sensor_id;sensor_type;location;lat;lon;timestamp;pressure;altitude;pressure_sealevel;temperature;humidity
45129;BME280;35512;56.312;101.728;2023-03-03T00:02:39;95698.25;;;-0.76;87.77
45129;BME280;35512;56.312;101.728;2023-03-03T00:05:09;95689.66;;;-0.73;88.23
45129;BME280;35512;56.312;101.728;2023-03-03T00:07:38;95686.38;;;-0.70;88.42
45129;BME280;35512;56.312;101.728;2023-03-03T00:10:07;95678.09;;;-0.77;88.36
45129;BME280;35512;56.312;101.728;2023-03-03T00:12:45;95696.25;;;-0.62;87.77
45129;BME280;35512;56.312;101.728;2023-03-03T00:15:20;95684.06;;;-0.63;87.48
45129;BME280;35512;56.312;101.728;2023-03-03T00:17:50;95682.03;;;-0.66;87.88
45129;BME280;35512;56.312;101.728;2023-03-03T00:22:54;95679.09;;;-0.56;87.88
45129;BME280;35512;56.312;101.728;2023-03-03T00:25:28;95674.91;;;-0.48;87.09
45129;BME280;35512;56.312;101.728;2023-03-03T00:30:54;95674.47;;;-0.32;87.32
45129;BME280;35512;56.312;101.728;2023-03-03T00:35:55;95672.75;;;-0.20;87.72
45129;BME280;35512;56.312;101.728;2023-03-03T00:38:24;95670.91;;;-0.10;87.35
45129;BME280;35512;56.312;101.728;2023-03-03T00:40:55;95669.19;;;-0.06;87.26
45129;BME280;35512;56.312;101.728;2023-03-03T00:43:25;95663.41;;;0.01;87.49
45129;BME280;35512;56.312;101.728;2023-03-03T00:45:57;95662.63;;;0.17;87.74
45129;BME280;35512;56.312;101.728;2023-03-03T00:53:51;95667.44;;;0.42;88.21
45129;BME280;35512;56.312;101.728;2023-03-03T00:56:20;95672.75;;;0.50;88.57
45129;BME280;35512;56.312;101.728;2023-03-03T00:58:49;95672.88;;;0.63;87.68
45129;BME280;35512;56.312;101.728;2023-03-03T01:01:21;95666.47;;;0.64;87.86
45129;BME280;35512;56.312;101.728;2023-03-03T01:03:52;95671.13;;;0.76;87.29
45129;BME280;35512;56.312;101.728;2023-03-03T01:06:21;95669.06;;;0.81;87.34
45129;BME280;35512;56.312;101.728;2023-03-03T01:08:50;95680.03;;;0.89;87.09
45129;BME280;35512;56.312;101.728;2023-03-03T01:11:22;95679.22;;;0.97;87.90
45129;BME280;35512;56.312;101.728;2023-03-03T01:13:52;95675.88;;;1.09;88.01
45129;BME280;35512;56.312;101.728;2023-03-03T01:16:21;95674.44;;;1.20;88.31
45129;BME280;35512;56.312;101.728;2023-03-03T01:18:50;95666.41;;;1.29;88.18
45129;BME280;35512;56.312;101.728;2023-03-03T01:21:19;95667.09;;;1.47;88.29
45129;BME280;35512;56.312;101.728;2023-03-03T01:23:48;95666.72;;;1.57;88.60
45129;BME280;35512;56.312;101.728;2023-03-03T01:26:17;95662.00;;;1.63;88.20
45129;BME280;35512;56.312;101.728;2023-03-03T01:28:47;95659.66;;;1.61;87.53
45129;BME280;35512;56.312;101.728;2023-03-03T01:31:17;95657.19;;;1.56;87.22
45129;BME280;35512;56.312;101.728;2023-03-03T01:33:46;95666.25;;;1.55;87.22
45129;BME280;35512;56.312;101.728;2023-03-03T01:36:14;95656.06;;;1.57;86.80
45129;BME280;35512;56.312;101.728;2023-03-03T01:38:43;95652.94;;;1.55;86.36
45129;BME280;35512;56.312;101.728;2023-03-03T01:41:12;95647.63;;;1.55;86.38
45129;BME280;35512;56.312;101.728;2023-03-03T01:43:49;95642.13;;;1.60;86.47
45129;BME280;35512;56.312;101.728;2023-03-03T01:46:37;95646.69;;;1.81;87.28
45129;BME280;35512;56.312;101.728;2023-03-03T01:49:20;95642.66;;;1.96;86.64
45129;BME280;35512;56.312;101.728;2023-03-03T01:52:00;95634.34;;;1.97;86.58
45129;BME280;35512;56.312;101.728;2023-03-03T01:54:42;95628.09;;;2.14;86.93
45129;BME280;35512;56.312;101.728;2023-03-03T01:57:17;95634.03;;;2.32;86.78
45129;BME280;35512;56.312;101.728;2023-03-03T01:59:50;95653.50;;;2.45;86.40
45129;BME280;35512;56.312;101.728;2023-03-03T02:02:21;95644.88;;;2.48;85.68
45129;BME280;35512;56.312;101.728;2023-03-03T02:04:52;95644.75;;;2.45;85.03
45129;BME280;35512;56.312;101.728;2023-03-03T02:07:24;95631.72;;;2.31;85.27
45129;BME280;35512;56.312;101.728;2023-03-03T02:10:19;95640.03;;;2.29;84.91
45129;BME280;35512;56.312;101.728;2023-03-03T02:15:37;95651.84;;;2.41;86.17
45129;BME280;35512;56.312;101.728;2023-03-03T02:18:18;95640.88;;;2.54;86.58
45129;BME280;35512;56.312;101.728;2023-03-03T02:20:57;95646.38;;;2.70;87.17
45129;BME280;35512;56.312;101.728;2023-03-03T02:23:59;95648.19;;;2.91;87.47
45129;BME280;35512;56.312;101.728;2023-03-03T02:26:28;95650.19;;;3.19;87.52
45129;BME280;35512;56.312;101.728;2023-03-03T02:29:03;95644.63;;;3.49;88.79
45129;BME280;35512;56.312;101.728;2023-03-03T02:31:32;95655.75;;;3.76;88.41
45129;BME280;35512;56.312;101.728;2023-03-03T02:34:01;95643.13;;;4.01;88.47
45129;BME280;35512;56.312;101.728;2023-03-03T02:36:35;95638.66;;;4.33;88.53
45129;BME280;35512;56.312;101.728;2023-03-03T02:39:13;95643.50;;;4.72;88.48
45129;BME280;35512;56.312;101.728;2023-03-03T02:42:01;95634.53;;;5.12;89.36
45129;BME280;35512;56.312;101.728;2023-03-03T02:44:38;95636.84;;;5.46;89.46
45129;BME280;35512;56.312;101.728;2023-03-03T02:47:07;95629.63;;;5.66;88.91
45129;BME280;35512;56.312;101.728;2023-03-03T02:49:36;95619.34;;;6.03;89.14
45129;BME280;35512;56.312;101.728;2023-03-03T02:52:07;95629.28;;;6.42;89.43
45129;BME280;35512;56.312;101.728;2023-03-03T02:54:41;95625.88;;;6.65;89.20
45129;BME280;35512;56.312;101.728;2023-03-03T02:57:10;95614.75;;;6.86;89.47
45129;BME280;35512;56.312;101.728;2023-03-03T02:59:39;95617.91;;;7.15;88.96
45129;BME280;35512;56.312;101.728;2023-03-03T03:02:12;95612.81;;;7.33;89.18
45129;BME280;35512;56.312;101.728;2023-03-03T03:04:42;95615.16;;;7.11;87.54
45129;BME280;35512;56.312;101.728;2023-03-03T03:07:15;95605.44;;;6.80;88.10
45129;BME280;35512;56.312;101.728;2023-03-03T03:09:44;95605.34;;;6.53;87.78
45129;BME280;35512;56.312;101.728;2023-03-03T03:12:14;95605.47;;;6.37;87.74
45129;BME280;35512;56.312;101.728;2023-03-03T03:14:49;95598.81;;;6.31;88.40
45129;BME280;35512;56.312;101.728;2023-03-03T03:17:19;95610.03;;;6.36;88.26
45129;BME280;35512;56.312;101.728;2023-03-03T03:19:49;95602.41;;;6.38;87.86
45129;BME280;35512;56.312;101.728;2023-03-03T03:22:19;95599.38;;;6.40;87.78
45129;BME280;35512;56.312;101.728;2023-03-03T03:24:48;95601.06;;;6.48;87.69
45129;BME280;35512;56.312;101.728;2023-03-03T03:27:17;95588.13;;;6.54;86.98
45129;BME280;35512;56.312;101.728;2023-03-03T03:29:48;95600.31;;;6.71;86.09
45129;BME280;35512;56.312;101.728;2023-03-03T03:32:17;95598.94;;;6.81;86.77
45129;BME280;35512;56.312;101.728;2023-03-03T03:34:47;95604.84;;;6.90;86.52
45129;BME280;35512;56.312;101.728;2023-03-03T03:37:16;95598.81;;;6.97;86.95
45129;BME280;35512;56.312;101.728;2023-03-03T03:39:46;95600.81;;;7.00;86.43
45129;BME280;35512;56.312;101.728;2023-03-03T03:42:14;95610.44;;;7.04;85.49
45129;BME280;35512;56.312;101.728;2023-03-03T03:44:43;95607.84;;;7.08;85.31
45129;BME280;35512;56.312;101.728;2023-03-03T03:47:13;95594.44;;;7.11;84.29
45129;BME280;35512;56.312;101.728;2023-03-03T03:49:42;95578.59;;;7.03;81.99
45129;BME280;35512;56.312;101.728;2023-03-03T03:52:11;95581.91;;;7.19;82.69
45129;BME280;35512;56.312;101.728;2023-03-03T03:54:40;95593.75;;;7.41;81.71
45129;BME280;35512;56.312;101.728;2023-03-03T03:57:09;95598.97;;;7.57;81.91
45129;BME280;35512;56.312;101.728;2023-03-03T03:59:38;95603.50;;;7.80;82.53
45129;BME280;35512;56.312;101.728;2023-03-03T04:02:08;95591.19;;;8.09;82.92
45129;BME280;35512;56.312;101.728;2023-03-03T04:04:40;95579.50;;;8.28;82.30
45129;BME280;35512;56.312;101.728;2023-03-03T04:07:09;95599.84;;;8.60;81.57
45129;BME280;35512;56.312;101.728;2023-03-03T04:09:38;95592.19;;;8.66;80.74
45129;BME280;35512;56.312;101.728;2023-03-03T04:12:08;95592.47;;;8.53;79.11
45129;BME280;35512;56.312;101.728;2023-03-03T05:19:43;95527.44;;;7.76;74.64
45129;BME280;35512;56.312;101.728;2023-03-03T05:22:13;95507.00;;;7.71;73.55
45129;BME280;35512;56.312;101.728;2023-03-03T05:24:42;95527.00;;;7.70;73.84
45129;BME280;35512;56.312;101.728;2023-03-03T05:27:11;95526.06;;;7.59;72.54
45129;BME280;35512;56.312;101.728;2023-03-03T05:29:39;95527.38;;;7.42;70.76
45129;BME280;35512;56.312;101.728;2023-03-03T05:32:08;95518.28;;;7.23;71.97
45129;BME280;35512;56.312;101.728;2023-03-03T05:34:37;95523.00;;;7.30;73.54
45129;BME280;35512;56.312;101.728;2023-03-03T05:37:06;95515.31;;;7.28;73.39
45129;BME280;35512;56.312;101.728;2023-03-03T05:39:35;95517.41;;;7.42;74.42
45129;BME280;35512;56.312;101.728;2023-03-03T05:42:04;95512.94;;;7.54;74.31
45129;BME280;35512;56.312;101.728;2023-03-03T05:44:33;95499.75;;;7.72;74.95
45129;BME280;35512;56.312;101.728;2023-03-03T05:47:01;95506.00;;;7.83;75.25
45129;BME280;35512;56.312;101.728;2023-03-03T05:49:30;95497.94;;;7.83;72.26
45129;BME280;35512;56.312;101.728;2023-03-03T05:51:59;95494.31;;;7.68;70.07
45129;BME280;35512;56.312;101.728;2023-03-03T05:54:28;95494.06;;;7.47;68.29
45129;BME280;35512;56.312;101.728;2023-03-03T05:56:57;95479.56;;;7.24;66.03
45129;BME280;35512;56.312;101.728;2023-03-03T05:59:25;95497.47;;;7.13;67.17
45129;BME280;35512;56.312;101.728;2023-03-03T06:01:55;95480.25;;;7.18;67.58
45129;BME280;35512;56.312;101.728;2023-03-03T06:04:24;95478.31;;;7.18;66.00
45129;BME280;35512;56.312;101.728;2023-03-03T06:06:53;95463.00;;;7.19;67.43
45129;BME280;35512;56.312;101.728;2023-03-03T06:09:22;95471.88;;;7.23;67.29
45129;BME280;35512;56.312;101.728;2023-03-03T06:11:51;95463.91;;;7.30;64.99
45129;BME280;35512;56.312;101.728;2023-03-03T06:14:21;95463.09;;;7.26;64.80
45129;BME280;35512;56.312;101.728;2023-03-03T06:16:53;95455.72;;;7.19;65.25
45129;BME280;35512;56.312;101.728;2023-03-03T06:19:22;95463.47;;;7.24;65.33
45129;BME280;35512;56.312;101.728;2023-03-03T06:21:52;95468.78;;;7.21;64.33
45129;BME280;35512;56.312;101.728;2023-03-03T06:24:21;95464.59;;;7.23;64.59
45129;BME280;35512;56.312;101.728;2023-03-03T06:26:52;95470.88;;;7.35;64.39
45129;BME280;35512;56.312;101.728;2023-03-03T06:29:21;95476.84;;;7.51;64.78
45129;BME280;35512;56.312;101.728;2023-03-03T06:31:51;95483.16;;;7.66;65.29
45129;BME280;35512;56.312;101.728;2023-03-03T06:34:22;95485.72;;;7.89;63.26
45129;BME280;35512;56.312;101.728;2023-03-03T06:36:51;95480.38;;;7.93;64.65
45129;BME280;35512;56.312;101.728;2023-03-03T06:39:20;95470.59;;;8.11;65.35
45129;BME280;35512;56.312;101.728;2023-03-03T06:41:49;95475.34;;;8.25;65.72
45129;BME280;35512;56.312;101.728;2023-03-03T06:44:19;95489.69;;;8.40;66.56
45129;BME280;35512;56.312;101.728;2023-03-03T06:46:48;95482.44;;;8.44;66.88
45129;BME280;35512;56.312;101.728;2023-03-03T06:49:17;95470.44;;;8.35;66.46
45129;BME280;35512;56.312;101.728;2023-03-03T06:51:46;95475.88;;;8.42;67.31
45129;BME280;35512;56.312;101.728;2023-03-03T06:54:18;95473.59;;;8.44;66.93
45129;BME280;35512;56.312;101.728;2023-03-03T06:56:50;95459.78;;;8.45;67.62
45129;BME280;35512;56.312;101.728;2023-03-03T06:59:22;95461.41;;;8.57;67.15
45129;BME280;35512;56.312;101.728;2023-03-03T07:01:53;95446.88;;;8.66;66.66
45129;BME280;35512;56.312;101.728;2023-03-03T07:04:32;95456.59;;;8.81;63.50
45129;BME280;35512;56.312;101.728;2023-03-03T07:07:23;95462.44;;;8.94;62.93
45129;BME280;35512;56.312;101.728;2023-03-03T07:09:54;95456.72;;;8.99;61.35
45129;BME280;35512;56.312;101.728;2023-03-03T07:12:26;95461.34;;;9.02;60.11
45129;BME280;35512;56.312;101.728;2023-03-03T07:17:48;95445.94;;;8.99;57.52
45129;BME280;35512;56.312;101.728;2023-03-03T07:20:19;95459.78;;;9.01;56.46
45129;BME280;35512;56.312;101.728;2023-03-03T07:27:24;95450.56;;;8.99;57.32
45129;BME280;35512;56.312;101.728;2023-03-03T07:30:27;95459.78;;;8.98;55.92
45129;BME280;35512;56.312;101.728;2023-03-03T07:32:57;95445.13;;;8.88;56.57
45129;BME280;35512;56.312;101.728;2023-03-03T07:35:37;95435.84;;;8.82;56.47
45129;BME280;35512;56.312;101.728;2023-03-03T07:38:37;95423.84;;;8.72;57.20
45129;BME280;35512;56.312;101.728;2023-03-03T07:41:14;95419.19;;;8.65;56.39
45129;BME280;35512;56.312;101.728;2023-03-03T07:44:08;95424.53;;;8.61;56.74
45129;BME280;35512;56.312;101.728;2023-03-03T07:46:44;95398.78;;;8.64;55.45
45129;BME280;35512;56.312;101.728;2023-03-03T07:49:36;95417.66;;;8.68;55.59
45129;BME280;35512;56.312;101.728;2023-03-03T07:52:19;95403.88;;;8.73;53.53
45129;BME280;35512;56.312;101.728;2023-03-03T07:54:55;95382.69;;;8.68;52.26
45129;BME280;35512;56.312;101.728;2023-03-03T07:57:37;95399.25;;;8.73;51.91
45129;BME280;35512;56.312;101.728;2023-03-03T08:05:41;95386.84;;;8.61;51.00
45129;BME280;35512;56.312;101.728;2023-03-03T08:10:59;95386.44;;;8.52;50.79
45129;BME280;35512;56.312;101.728;2023-03-03T08:18:45;95373.19;;;8.33;50.54
45129;BME280;35512;56.312;101.728;2023-03-03T08:21:25;95372.75;;;8.27;48.71
45129;BME280;35512;56.312;101.728;2023-03-03T08:23:54;95359.19;;;8.12;49.14
45129;BME280;35512;56.312;101.728;2023-03-03T08:26:24;95359.50;;;8.04;50.03
45129;BME280;35512;56.312;101.728;2023-03-03T08:28:53;95338.59;;;7.83;50.18
45129;BME280;35512;56.312;101.728;2023-03-03T08:31:23;95358.19;;;7.83;48.99
45129;BME280;35512;56.312;101.728;2023-03-03T08:34:07;95362.00;;;7.78;47.76
45129;BME280;35512;56.312;101.728;2023-03-03T08:36:36;95362.72;;;7.75;46.48
45129;BME280;35512;56.312;101.728;2023-03-03T08:39:05;95344.59;;;7.65;45.54
45129;BME280;35512;56.312;101.728;2023-03-03T08:41:34;95358.38;;;7.64;45.70
45129;BME280;35512;56.312;101.728;2023-03-03T08:44:03;95354.91;;;7.63;43.84
45129;BME280;35512;56.312;101.728;2023-03-03T08:46:32;95361.03;;;7.60;44.36
45129;BME280;35512;56.312;101.728;2023-03-03T08:49:01;95364.03;;;7.51;45.11
45129;BME280;35512;56.312;101.728;2023-03-03T08:51:30;95354.69;;;7.41;44.71
45129;BME280;35512;56.312;101.728;2023-03-03T08:54:01;95361.25;;;7.44;44.03
45129;BME280;35512;56.312;101.728;2023-03-03T08:56:30;95352.38;;;7.40;43.99
45129;BME280;35512;56.312;101.728;2023-03-03T08:58:59;95359.28;;;7.41;43.27
45129;BME280;35512;56.312;101.728;2023-03-03T09:01:31;95351.94;;;7.34;45.01
45129;BME280;35512;56.312;101.728;2023-03-03T09:04:00;95326.44;;;7.17;44.03
45129;BME280;35512;56.312;101.728;2023-03-03T09:06:29;95348.13;;;7.39;44.25
45129;BME280;35512;56.312;101.728;2023-03-03T09:08:58;95339.38;;;7.42;44.05
45129;BME280;35512;56.312;101.728;2023-03-03T09:11:28;95331.94;;;7.28;44.01
45129;BME280;35512;56.312;101.728;2023-03-03T09:14:11;95346.63;;;7.41;44.98
45129;BME280;35512;56.312;101.728;2023-03-03T09:16:52;95351.59;;;7.39;45.06
45129;BME280;35512;56.312;101.728;2023-03-03T09:19:28;95348.44;;;7.30;45.75
45129;BME280;35512;56.312;101.728;2023-03-03T09:22:10;95343.31;;;7.18;45.42
45129;BME280;35512;56.312;101.728;2023-03-03T09:24:46;95338.19;;;7.05;45.51
45129;BME280;35512;56.312;101.728;2023-03-03T09:29:54;95348.06;;;6.98;46.60
45129;BME280;35512;56.312;101.728;2023-03-03T09:32:38;95328.81;;;6.92;47.04
45129;BME280;35512;56.312;101.728;2023-03-03T09:35:33;95346.91;;;6.99;47.73
45129;BME280;35512;56.312;101.728;2023-03-03T09:38:24;95344.97;;;6.96;47.22
45129;BME280;35512;56.312;101.728;2023-03-03T09:43:58;95337.53;;;6.82;47.79
45129;BME280;35512;56.312;101.728;2023-03-03T09:50:04;95332.88;;;6.79;48.25
45129;BME280;35512;56.312;101.728;2023-03-03T09:58:30;95328.00;;;6.57;49.61
45129;BME280;35512;56.312;101.728;2023-03-03T10:07:02;95322.06;;;6.45;48.69
45129;BME280;35512;56.312;101.728;2023-03-03T10:15:24;95301.34;;;6.15;48.97
45129;BME280;35512;56.312;101.728;2023-03-03T10:18:41;95308.19;;;6.12;49.08
45129;BME280;35512;56.312;101.728;2023-03-03T10:21:35;95302.13;;;6.15;47.73
45129;BME280;35512;56.312;101.728;2023-03-03T10:26:50;95299.59;;;6.26;47.00
45129;BME280;35512;56.312;101.728;2023-03-03T10:30:09;95295.88;;;6.07;47.56
45129;BME280;35512;56.312;101.728;2023-03-03T10:33:04;95307.44;;;5.88;47.14
45129;BME280;35512;56.312;101.728;2023-03-03T10:38:50;95306.13;;;5.79;46.98
45129;BME280;35512;56.312;101.728;2023-03-03T10:41:50;95320.00;;;5.61;47.59
45129;BME280;35512;56.312;101.728;2023-03-03T10:49:40;95301.22;;;5.38;48.83
45129;BME280;35512;56.312;101.728;2023-03-03T10:52:21;95299.00;;;5.40;49.29
45129;BME280;35512;56.312;101.728;2023-03-03T11:04:42;95297.16;;;5.44;48.02
45129;BME280;35512;56.312;101.728;2023-03-03T11:07:53;95294.28;;;5.56;47.25
45129;BME280;35512;56.312;101.728;2023-03-03T11:10:39;95282.56;;;5.65;46.88
45129;BME280;35512;56.312;101.728;2023-03-03T11:14:07;95287.47;;;5.86;46.66
45129;BME280;35512;56.312;101.728;2023-03-03T11:19:37;95285.38;;;6.22;44.53
45129;BME280;35512;56.312;101.728;2023-03-03T11:25:26;95266.69;;;6.29;45.04
45129;BME280;35512;56.312;101.728;2023-03-03T11:28:30;95264.03;;;6.29;44.32
45129;BME280;35512;56.312;101.728;2023-03-03T11:39:24;95242.72;;;6.13;43.94
45129;BME280;35512;56.312;101.728;2023-03-03T11:42:20;95234.00;;;6.16;43.61
45129;BME280;35512;56.312;101.728;2023-03-03T11:44:59;95231.31;;;6.16;42.81
45129;BME280;35512;56.312;101.728;2023-03-03T11:53:19;95227.59;;;6.24;41.18
45129;BME280;35512;56.312;101.728;2023-03-03T11:56:01;95227.16;;;6.22;41.19
45129;BME280;35512;56.312;101.728;2023-03-03T11:58:53;95225.81;;;6.09;41.44
45129;BME280;35512;56.312;101.728;2023-03-03T12:04:20;95227.31;;;5.80;42.89
45129;BME280;35512;56.312;101.728;2023-03-03T12:07:07;95229.03;;;5.68;42.77
45129;BME280;35512;56.312;101.728;2023-03-03T12:12:32;95237.53;;;5.47;43.13
45129;BME280;35512;56.312;101.728;2023-03-03T12:15:18;95238.75;;;5.30;43.77
45129;BME280;35512;56.312;101.728;2023-03-03T12:26:31;95239.41;;;4.42;46.60
45129;BME280;35512;56.312;101.728;2023-03-03T12:28:57;95237.81;;;4.37;46.59
45129;BME280;35512;56.312;101.728;2023-03-03T12:34:34;95228.59;;;4.34;46.80
45129;BME280;35512;56.312;101.728;2023-03-03T12:40:13;95217.97;;;4.38;46.51
45129;BME280;35512;56.312;101.728;2023-03-03T12:43:21;95219.22;;;4.44;46.78
45129;BME280;35512;56.312;101.728;2023-03-03T12:46:06;95204.50;;;4.54;46.26
45129;BME280;35512;56.312;101.728;2023-03-03T12:48:43;95202.19;;;4.52;46.03
45129;BME280;35512;56.312;101.728;2023-03-03T12:56:53;95200.88;;;4.43;45.78
45129;BME280;35512;56.312;101.728;2023-03-03T13:05:18;95197.25;;;3.96;46.71
45129;BME280;35512;56.312;101.728;2023-03-03T13:13:21;95191.16;;;3.28;47.90
45129;BME280;35512;56.312;101.728;2023-03-03T13:16:10;95198.13;;;3.16;48.80
45129;BME280;35512;56.312;101.728;2023-03-03T13:21:34;95194.56;;;2.80;49.42
45129;BME280;35512;56.312;101.728;2023-03-03T13:26:42;95197.47;;;2.75;49.89
45129;BME280;35512;56.312;101.728;2023-03-03T13:29:19;95194.38;;;2.73;49.81
45129;BME280;35512;56.312;101.728;2023-03-03T13:32:16;95193.94;;;2.71;50.14
45129;BME280;35512;56.312;101.728;2023-03-03T13:35:01;95187.66;;;2.63;50.02
45129;BME280;35512;56.312;101.728;2023-03-03T13:37:38;95182.75;;;2.65;50.17
45129;BME280;35512;56.312;101.728;2023-03-03T13:40:21;95171.66;;;2.63;50.20
45129;BME280;35512;56.312;101.728;2023-03-03T13:43:07;95183.97;;;2.68;49.95
45129;BME280;35512;56.312;101.728;2023-03-03T13:48:44;95176.06;;;2.72;50.03
45129;BME280;35512;56.312;101.728;2023-03-03T13:54:44;95171.66;;;2.63;49.86
45129;BME280;35512;56.312;101.728;2023-03-03T14:09:36;95142.03;;;2.36;50.68
45129;BME280;35512;56.312;101.728;2023-03-03T14:11:42;95131.78;;;2.39;50.75
45129;BME280;35512;56.312;101.728;2023-03-03T14:14:44;95128.59;;;2.33;50.96
45129;BME280;35512;56.312;101.728;2023-03-03T14:17:37;95124.06;;;2.33;50.80
45129;BME280;35512;56.312;101.728;2023-03-03T14:20:23;95127.38;;;2.30;50.94
45129;BME280;35512;56.312;101.728;2023-03-03T14:23:01;95119.31;;;2.27;50.81
45129;BME280;35512;56.312;101.728;2023-03-03T14:28:27;95116.84;;;2.34;50.54
45129;BME280;35512;56.312;101.728;2023-03-03T14:30:57;95115.72;;;2.35;50.62
45129;BME280;35512;56.312;101.728;2023-03-03T14:33:29;95115.56;;;2.44;50.23
45129;BME280;35512;56.312;101.728;2023-03-03T14:36:02;95103.03;;;2.44;50.22
45129;BME280;35512;56.312;101.728;2023-03-03T14:41:12;95108.59;;;2.39;50.66
45129;BME280;35512;56.312;101.728;2023-03-03T14:44:23;95100.56;;;2.23;51.08
45129;BME280;35512;56.312;101.728;2023-03-03T14:49:34;95101.03;;;1.97;51.82
45129;BME280;35512;56.312;101.728;2023-03-03T14:54:59;95076.69;;;1.70;52.09
45129;BME280;35512;56.312;101.728;2023-03-03T15:05:36;95084.72;;;1.58;52.25
45129;BME280;35512;56.312;101.728;2023-03-03T15:08:26;95081.84;;;1.63;52.28
45129;BME280;35512;56.312;101.728;2023-03-03T15:13:45;95087.72;;;1.56;52.49
45129;BME280;35512;56.312;101.728;2023-03-03T15:16:23;95083.97;;;1.57;52.49
45129;BME280;35512;56.312;101.728;2023-03-03T15:22:00;95064.00;;;1.51;52.54
45129;BME280;35512;56.312;101.728;2023-03-03T15:24:38;95067.69;;;1.46;52.97
45129;BME280;35512;56.312;101.728;2023-03-03T15:27:18;95066.69;;;1.39;53.15
45129;BME280;35512;56.312;101.728;2023-03-03T15:30:07;95053.31;;;1.23;53.22
45129;BME280;35512;56.312;101.728;2023-03-03T15:33:06;95065.06;;;1.22;53.02
45129;BME280;35512;56.312;101.728;2023-03-03T15:35:59;95050.66;;;1.10;53.40
45129;BME280;35512;56.312;101.728;2023-03-03T15:44:31;95130.22;;;0.91;53.35
45129;BME280;35512;56.312;101.728;2023-03-03T15:47:24;95103.97;;;0.89;53.78
45129;BME280;35512;56.312;101.728;2023-03-03T15:50:23;95109.59;;;1.25;53.01
45129;BME280;35512;56.312;101.728;2023-03-03T15:55:58;95106.06;;;2.30;50.81
45129;BME280;35512;56.312;101.728;2023-03-03T16:01:31;95113.97;;;2.87;49.58
45129;BME280;35512;56.312;101.728;2023-03-03T16:04:12;95103.47;;;2.94;49.79
45129;BME280;35512;56.312;101.728;2023-03-03T16:06:46;95105.38;;;2.94;49.53
45129;BME280;35512;56.312;101.728;2023-03-03T16:09:55;95096.06;;;2.87;49.83
45129;BME280;35512;56.312;101.728;2023-03-03T16:23:29;95080.13;;;2.27;50.52
45129;BME280;35512;56.312;101.728;2023-03-03T16:28:59;95078.69;;;2.01;51.23
45129;BME280;35512;56.312;101.728;2023-03-03T16:31:55;95061.66;;;1.90;51.77
45129;BME280;35512;56.312;101.728;2023-03-03T16:37:43;95076.34;;;1.72;51.74
45129;BME280;35512;56.312;101.728;2023-03-03T16:43:04;95069.53;;;1.58;52.04
45129;BME280;35512;56.312;101.728;2023-03-03T16:45:37;95070.31;;;1.59;51.66
45129;BME280;35512;56.312;101.728;2023-03-03T16:48:25;95071.00;;;1.56;51.87
45129;BME280;35512;56.312;101.728;2023-03-03T16:51:26;95070.31;;;1.59;51.75
45129;BME280;35512;56.312;101.728;2023-03-03T16:57:15;95051.31;;;1.32;51.80
45129;BME280;35512;56.312;101.728;2023-03-03T17:16:26;95014.00;;;1.04;51.71
45129;BME280;35512;56.312;101.728;2023-03-03T17:22:23;94988.13;;;0.76;52.51
45129;BME280;35512;56.312;101.728;2023-03-03T17:25:21;94989.38;;;0.66;52.30
45129;BME280;35512;56.312;101.728;2023-03-03T17:28:04;94995.34;;;0.63;52.34
45129;BME280;35512;56.312;101.728;2023-03-03T17:30:42;94996.00;;;0.60;52.58
45129;BME280;35512;56.312;101.728;2023-03-03T17:33:34;94990.59;;;0.44;52.68
45129;BME280;35512;56.312;101.728;2023-03-03T17:50:34;94958.81;;;0.23;53.30
45129;BME280;35512;56.312;101.728;2023-03-03T18:07:47;94920.53;;;0.11;53.38
45129;BME280;35512;56.312;101.728;2023-03-03T18:21:21;94900.72;;;0.33;53.55
45129;BME280;35512;56.312;101.728;2023-03-03T18:23:51;94896.75;;;0.40;53.54
45129;BME280;35512;56.312;101.728;2023-03-03T18:26:36;94905.34;;;0.49;53.18
45129;BME280;35512;56.312;101.728;2023-03-03T18:29:25;94909.00;;;0.57;53.51
45129;BME280;35512;56.312;101.728;2023-03-03T18:34:36;94899.16;;;0.70;53.06
45129;BME280;35512;56.312;101.728;2023-03-03T18:37:34;94898.81;;;0.71;53.34
45129;BME280;35512;56.312;101.728;2023-03-03T18:42:37;94883.28;;;0.73;53.44
45129;BME280;35512;56.312;101.728;2023-03-03T18:45:14;94878.09;;;0.77;53.05
45129;BME280;35512;56.312;101.728;2023-03-03T18:48:12;94868.00;;;0.82;53.51
45129;BME280;35512;56.312;101.728;2023-03-03T18:50:46;94869.84;;;0.94;53.39
45129;BME280;35512;56.312;101.728;2023-03-03T18:53:21;94853.97;;;0.98;53.01
45129;BME280;35512;56.312;101.728;2023-03-03T18:55:56;94849.44;;;0.98;52.53
45129;BME280;35512;56.312;101.728;2023-03-03T19:09:10;94815.88;;;0.65;52.77
45129;BME280;35512;56.312;101.728;2023-03-03T19:11:50;94807.03;;;0.61;53.14
45129;BME280;35512;56.312;101.728;2023-03-03T19:16:57;94789.91;;;0.59;53.18
45129;BME280;35512;56.312;101.728;2023-03-03T19:19:31;94785.25;;;0.56;53.48
45129;BME280;35512;56.312;101.728;2023-03-03T19:22:21;94779.41;;;0.50;53.40
45129;BME280;35512;56.312;101.728;2023-03-03T19:25:25;94769.81;;;0.45;53.31
45129;BME280;35512;56.312;101.728;2023-03-03T19:28:12;94757.97;;;0.43;53.63
45129;BME280;35512;56.312;101.728;2023-03-03T19:42:27;94690.78;;;0.26;53.18
45129;BME280;35512;56.312;101.728;2023-03-03T19:45:07;94680.16;;;0.26;53.39
45129;BME280;35512;56.312;101.728;2023-03-03T19:47:45;94671.50;;;0.29;53.49
45129;BME280;35512;56.312;101.728;2023-03-03T19:56:17;94646.16;;;0.32;53.26
45129;BME280;35512;56.312;101.728;2023-03-03T20:15:50;94588.69;;;0.24;53.59
45129;BME280;35512;56.312;101.728;2023-03-03T20:26:14;94563.47;;;0.02;54.10
45129;BME280;35512;56.312;101.728;2023-03-03T20:29:01;94563.81;;;0.00;54.15
45129;BME280;35512;56.312;101.728;2023-03-03T20:34:35;94554.88;;;-0.08;54.13